Pagina principale
METAR-TAF:

METAR-TAF

Aeroporti :

Aeroporto di Venezia-Tessera

Venezia, Italia

latitudine: 45-30N, longitudine: 012-20E, altezza: 2 m

Osservazione

Il bollettino è stato emesso 35 minuti fa, alle 13:50 UTC
Vento 6 kt da sud/sud-est
Temperature 13°C
Umidità 47%
Pressione 1033 hPa
Visibilità 10 km o più
nessuna nube inferiore a 1500 m e nessun cumulonembo

METAR: LIPZ 021350Z 15006KT CAVOK 13/02 Q1033 NOSIG

Ora: 15:25 (14:25 UTC)

Previsione

Il bollettino è stato emesso 3 ore e 25 minuti fa, alle 11:00 UTC
Previsione valida dal 02 alle 12 UTC al 03 alle 18 UTC
Vento 5 kt da direzioni variabili
Visibilità 10 km o più
nessuna nube inferiore a 1500 m e nessun cumulonembo

TAF: LIPZ 021100Z 0212/0318 VRB05KT CAVOK

Osservazioni e previsioni meteorologiche di più di 4000 aeroporti (messaggi METAR e TAF).

Le stazioni disponibili sono rappresentate dai dischi gialli e rossi sulla carta.

Puntare il mouse per vedere il nome della stazione.

Clicca sopra per visualizzare le osservazioni e previsioni meteorologiche.

Per cambiare la mappa : fare clic sui pulsanti verdi con una croce nera per ingrandire, il pulsante verde con un trattino per diminuire, o sulla freccia verde per le mappe adiacenti.


METAR-TAF: